createdAt,value
2019-06-04T00:01:57.815Z,31.53
2019-06-04T00:04:26.415Z,31.03
2019-06-04T00:06:56.117Z,29.93
2019-06-04T00:09:24.678Z,30.90
2019-06-04T00:11:53.521Z,27.63
2019-06-04T00:14:22.188Z,30.20
2019-06-04T00:16:50.633Z,28.43
2019-06-04T00:19:19.091Z,28.83
2019-06-04T00:21:47.584Z,29.80
2019-06-04T00:24:16.081Z,30.67
2019-06-04T00:26:44.543Z,31.97
2019-06-04T00:29:13.050Z,31.97
2019-06-04T00:31:41.531Z,33.90
2019-06-04T00:34:10.045Z,30.47
2019-06-04T00:36:38.577Z,33.13
2019-06-04T00:39:07.163Z,32.27
2019-06-04T00:41:35.624Z,32.03
2019-06-04T00:44:05.470Z,33.07
2019-06-04T00:46:34.244Z,35.13
2019-06-04T00:49:03.123Z,35.77
2019-06-04T00:51:31.723Z,35.40
2019-06-04T00:54:01.026Z,28.93
2019-06-04T00:56:29.589Z,34.80
2019-06-04T00:58:58.055Z,36.00
2019-06-04T01:01:27.088Z,36.37
2019-06-04T01:03:56.816Z,36.73
2019-06-04T01:06:25.440Z,35.23
2019-06-04T01:08:54.013Z,38.57
2019-06-04T01:11:22.400Z,35.47
2019-06-04T01:13:50.788Z,36.50
2019-06-04T01:16:19.183Z,35.60
2019-06-04T01:18:47.671Z,33.60
2019-06-04T01:21:16.066Z,38.30
2019-06-04T01:23:44.637Z,33.40
2019-06-04T01:26:13.199Z,41.27
2019-06-04T01:28:41.670Z,40.40
2019-06-04T01:31:10.507Z,41.67
2019-06-04T01:33:41.037Z,45.20
2019-06-04T01:36:11.074Z,43.77
2019-06-04T01:38:39.559Z,47.47
2019-06-04T01:41:09.319Z,49.03
2019-06-04T01:43:37.906Z,50.07
2019-06-04T01:46:07.647Z,50.87
2019-06-04T01:48:36.393Z,54.50
2019-06-04T01:51:06.034Z,56.90
2019-06-04T01:53:34.631Z,57.00
2019-06-04T01:56:04.522Z,56.93
2019-06-04T01:58:33.146Z,57.83
2019-06-04T02:01:02.889Z,57.80
2019-06-04T02:03:31.479Z,55.27
2019-06-04T02:05:59.907Z,60.10
2019-06-04T02:08:28.510Z,60.27
2019-06-04T02:10:56.996Z,61.40
2019-06-04T02:13:25.457Z,60.10
2019-06-04T02:15:53.956Z,62.60
2019-06-04T02:18:23.667Z,61.97
2019-06-04T02:20:52.169Z,63.70
2019-06-04T02:23:20.619Z,61.57
2019-06-04T02:25:49.126Z,61.30
2019-06-04T02:28:18.789Z,61.23
2019-06-04T02:30:47.445Z,61.70
2019-06-04T02:33:20.713Z,58.27
2019-06-04T02:35:46.133Z,59.53
2019-06-04T02:38:15.303Z,55.37
2019-06-04T02:40:45.057Z,56.73
2019-06-04T02:43:14.826Z,54.73
2019-06-04T02:45:44.352Z,53.27
2019-06-04T02:48:18.169Z,50.90
2019-06-04T02:50:47.274Z,49.30
2019-06-04T02:53:17.603Z,49.53
2019-06-04T02:55:48.605Z,48.80
2019-06-04T02:58:18.950Z,47.17
2019-06-04T03:01:06.116Z,47.70
2019-06-04T03:03:34.724Z,49.63
2019-06-04T03:06:04.021Z,48.00
2019-06-04T03:08:32.979Z,47.77
2019-06-04T03:11:01.467Z,46.67
2019-06-04T03:13:29.960Z,44.50
2019-06-04T03:15:58.687Z,48.40
2019-06-04T03:18:27.900Z,45.43
2019-06-04T03:20:56.384Z,48.53
2019-06-04T03:23:24.877Z,45.90
2019-06-04T03:25:53.345Z,43.67
2019-06-04T03:28:22.463Z,47.77
2019-06-04T03:30:51.019Z,42.90
2019-06-04T03:33:52.386Z,45.20
2019-06-04T03:35:49.645Z,44.93
2019-06-04T03:38:19.141Z,41.63
2019-06-04T03:40:47.722Z,44.43
2019-06-04T03:43:17.513Z,45.10
2019-06-04T03:45:46.336Z,45.73
2019-06-04T03:48:16.058Z,47.80
2019-06-04T03:50:44.656Z,48.03
2019-06-04T03:53:14.542Z,45.37
2019-06-04T03:55:43.316Z,45.03
2019-06-04T03:58:11.706Z,45.70
2019-06-04T04:00:40.277Z,44.50
2019-06-04T04:03:08.735Z,44.80
2019-06-04T04:05:37.195Z,44.67
2019-06-04T04:08:05.790Z,43.17
2019-06-04T04:10:34.279Z,44.37
2019-06-04T04:13:02.756Z,41.00
2019-06-04T04:15:31.277Z,44.27
2019-06-04T04:17:59.732Z,43.73
2019-06-04T04:20:29.328Z,45.77
2019-06-04T04:22:57.891Z,44.77
2019-06-04T04:25:27.698Z,44.20
2019-06-04T04:27:56.309Z,42.87
2019-06-04T04:30:25.128Z,43.23
2019-06-04T04:32:53.708Z,44.60
2019-06-04T04:35:23.285Z,43.83
2019-06-04T04:37:51.995Z,42.70
2019-06-04T04:40:21.763Z,42.97
2019-06-04T04:42:50.436Z,45.07
2019-06-04T04:45:20.398Z,42.80
2019-06-04T04:47:49.038Z,43.80
2019-06-04T04:50:17.517Z,42.83
2019-06-04T04:52:46.695Z,41.27
2019-06-04T04:55:15.159Z,42.07
2019-06-04T04:57:43.615Z,42.40
2019-06-04T05:00:12.318Z,41.90
2019-06-04T05:02:40.790Z,39.73
2019-06-04T05:05:09.321Z,41.27
2019-06-04T05:07:37.828Z,43.83
2019-06-04T05:10:06.321Z,42.47
2019-06-04T05:12:37.590Z,38.03
2019-06-04T05:15:11.323Z,41.03
2019-06-04T05:17:41.524Z,41.50
2019-06-04T05:20:10.401Z,42.87
2019-06-04T05:22:39.951Z,40.93
2019-06-04T05:25:08.461Z,40.43
2019-06-04T05:27:36.842Z,38.23
2019-06-04T05:30:06.245Z,40.00
2019-06-04T05:32:34.972Z,39.63
2019-06-04T05:35:05.247Z,36.40
2019-06-04T05:37:33.631Z,35.90
2019-06-04T05:40:02.048Z,36.20
2019-06-04T05:42:30.747Z,35.87
2019-06-04T05:44:59.193Z,35.63
2019-06-04T05:47:28.696Z,34.43
2019-06-04T05:49:57.231Z,31.30
2019-06-04T05:52:26.953Z,34.57
2019-06-04T05:54:55.968Z,35.13
2019-06-04T05:57:24.844Z,33.33
2019-06-04T05:59:53.504Z,35.27
2019-06-04T06:02:23.008Z,35.80
2019-06-04T06:04:51.645Z,33.33
2019-06-04T06:07:20.029Z,33.70
2019-06-04T06:09:48.530Z,33.13
2019-06-04T06:12:17.007Z,31.40
2019-06-04T06:14:45.391Z,30.63
2019-06-04T06:17:13.881Z,31.87
2019-06-04T06:19:42.339Z,29.50
2019-06-04T06:22:10.727Z,33.17
2019-06-04T06:24:39.221Z,30.70
2019-06-04T06:27:07.679Z,28.93
2019-06-04T06:29:36.057Z,26.53
2019-06-04T06:32:04.620Z,26.00
2019-06-04T06:34:37.016Z,28.40
2019-06-04T06:37:05.111Z,24.70
2019-06-04T06:39:33.647Z,24.43
2019-06-04T06:42:05.572Z,25.33
2019-06-04T06:44:32.277Z,25.27
2019-06-04T06:47:00.757Z,22.77
2019-06-04T06:49:29.297Z,21.47
2019-06-04T06:51:57.788Z,23.50
2019-06-04T06:54:27.572Z,24.37
2019-06-04T06:56:56.273Z,25.27
2019-06-04T06:59:24.659Z,25.00
2019-06-04T07:01:53.140Z,22.37
2019-06-04T07:04:21.603Z,23.63
2019-06-04T07:06:50.408Z,23.57
2019-06-04T07:09:18.928Z,23.10
2019-06-04T07:11:48.999Z,24.33
2019-06-04T07:14:19.239Z,25.87
2019-06-04T07:16:47.653Z,25.70
2019-06-04T07:19:16.043Z,26.33
2019-06-04T07:21:44.526Z,27.50
2019-06-04T07:24:13.031Z,25.50
2019-06-04T07:26:41.436Z,27.73
2019-06-04T07:29:09.937Z,27.03
2019-06-04T07:31:39.497Z,28.17
2019-06-04T07:34:08.773Z,26.17
2019-06-04T07:36:38.406Z,27.73
2019-06-04T07:39:07.301Z,24.33
2019-06-04T07:41:37.880Z,23.67
2019-06-04T07:44:05.983Z,23.63
2019-06-04T07:46:35.277Z,21.00
2019-06-04T07:49:03.976Z,21.97
2019-06-04T07:51:33.809Z,20.90
2019-06-04T07:54:02.634Z,22.43
2019-06-04T07:56:31.798Z,18.10
2019-06-04T07:59:00.334Z,20.70
2019-06-04T08:01:47.894Z,20.20
2019-06-04T08:03:58.848Z,20.13
2019-06-04T08:06:43.376Z,17.03
2019-06-04T08:08:57.456Z,18.03
2019-06-04T08:11:25.977Z,15.53
2019-06-04T08:13:54.379Z,17.67
2019-06-04T08:16:22.856Z,18.47
2019-06-04T08:18:51.248Z,17.73
2019-06-04T08:21:19.783Z,18.60
2019-06-04T08:23:48.528Z,19.37
2019-06-04T08:26:17.061Z,20.43
2019-06-04T08:28:45.536Z,20.13
2019-06-04T08:31:14.385Z,20.80
2019-06-04T08:33:42.853Z,17.70
2019-06-04T08:36:11.381Z,20.87
2019-06-04T08:38:44.314Z,21.37
2019-06-04T08:41:10.078Z,15.73
2019-06-04T08:43:39.605Z,19.33
2019-06-04T08:46:08.155Z,20.40
2019-06-04T08:48:37.812Z,22.07
2019-06-04T08:51:06.749Z,22.63
2019-06-04T08:53:36.093Z,23.20
2019-06-04T08:56:04.657Z,25.10
2019-06-04T08:58:33.214Z,24.50
2019-06-04T09:01:02.214Z,22.30
2019-06-04T09:03:30.824Z,24.90
2019-06-04T09:05:59.694Z,24.43
2019-06-04T09:08:28.361Z,25.10
2019-06-04T09:10:56.819Z,23.77
2019-06-04T09:13:25.283Z,23.77
2019-06-04T09:15:56.121Z,24.60
2019-06-04T09:18:23.992Z,25.13
2019-06-04T09:20:52.487Z,23.03
2019-06-04T09:23:20.980Z,24.30
2019-06-04T09:25:50.117Z,26.47
2019-06-04T09:28:18.898Z,24.97
2019-06-04T09:31:00.612Z,23.87
2019-06-04T09:33:17.580Z,20.57
2019-06-04T09:35:46.113Z,19.47
2019-06-04T09:38:15.020Z,18.83
2019-06-04T09:40:45.542Z,18.13
2019-06-04T09:43:13.689Z,18.67
2019-06-04T09:45:43.382Z,19.53
2019-06-04T09:48:12.347Z,20.43
2019-06-04T09:50:51.142Z,20.27
2019-06-04T09:53:12.039Z,19.17
2019-06-04T09:55:41.705Z,19.13
2019-06-04T09:58:29.733Z,16.90
2019-06-04T10:00:53.841Z,17.37
2019-06-04T10:03:22.884Z,19.90
2019-06-04T10:05:52.418Z,19.37
2019-06-04T10:08:21.124Z,19.40
2019-06-04T10:10:51.063Z,17.93
2019-06-04T10:13:19.766Z,15.77
2019-06-04T10:15:49.022Z,17.13
2019-06-04T10:18:17.591Z,20.50
2019-06-04T10:20:46.542Z,19.20
2019-06-04T10:23:16.539Z,20.23
2019-06-04T10:25:46.117Z,16.70
2019-06-04T10:28:14.629Z,19.67
2019-06-04T10:30:45.447Z,18.93
2019-06-04T10:33:14.353Z,17.07
2019-06-04T10:35:44.545Z,19.03
2019-06-04T10:38:27.097Z,20.30
2019-06-04T10:40:45.446Z,19.60
2019-06-04T10:43:13.680Z,18.03
2019-06-04T10:45:42.073Z,16.60
2019-06-04T10:48:10.540Z,16.97
2019-06-04T10:50:39.009Z,18.00
2019-06-04T10:53:07.561Z,18.67
2019-06-04T10:55:36.216Z,16.80
2019-06-04T10:58:05.023Z,16.80
2019-06-04T11:00:53.958Z,16.70
2019-06-04T11:03:25.457Z,15.80
2019-06-04T11:05:54.506Z,15.17
2019-06-04T11:08:23.476Z,15.37
2019-06-04T11:10:54.211Z,15.50
2019-06-04T11:13:23.068Z,14.30
2019-06-04T11:15:53.317Z,14.33
2019-06-04T11:18:26.022Z,14.17
2019-06-04T11:20:52.333Z,15.20
2019-06-04T11:23:20.867Z,14.67
2019-06-04T11:25:50.159Z,14.63
2019-06-04T11:28:20.087Z,15.40
2019-06-04T11:30:49.726Z,13.60
2019-06-04T11:33:18.333Z,15.17
2019-06-04T11:35:46.832Z,15.93
2019-06-04T11:38:15.295Z,15.07
2019-06-04T11:40:43.768Z,13.57
2019-06-04T11:43:12.481Z,13.70
2019-06-04T11:45:42.719Z,14.63
2019-06-04T11:48:11.332Z,15.03
2019-06-04T11:50:40.139Z,14.83
2019-06-04T11:53:08.687Z,15.17
2019-06-04T11:55:38.126Z,14.87
2019-06-04T11:58:06.653Z,13.63
2019-06-04T12:00:40.697Z,14.37
2019-06-04T12:03:09.401Z,14.10
2019-06-04T12:05:37.991Z,17.03
2019-06-04T12:08:06.656Z,17.63
2019-06-04T12:10:35.306Z,19.70
2019-06-04T12:13:03.852Z,15.57
2019-06-04T12:15:32.486Z,16.67
2019-06-04T12:18:02.704Z,15.80
2019-06-04T12:20:31.824Z,15.33
2019-06-04T12:23:25.912Z,13.60
2019-06-04T12:25:30.525Z,15.13
2019-06-04T12:27:59.999Z,16.50
2019-06-04T12:30:29.422Z,15.33
2019-06-04T12:32:58.416Z,15.00
2019-06-04T12:35:27.312Z,13.60
2019-06-04T12:37:57.391Z,14.00
2019-06-04T12:40:27.374Z,13.67
2019-06-04T12:42:57.551Z,13.57
2019-06-04T12:45:26.524Z,12.77
2019-06-04T12:47:57.328Z,13.63
2019-06-04T12:50:29.986Z,12.53
2019-06-04T12:52:59.119Z,12.67
2019-06-04T12:55:28.131Z,12.87
2019-06-04T12:57:57.461Z,13.07
2019-06-04T13:00:26.109Z,13.47
2019-06-04T13:02:55.028Z,13.10
2019-06-04T13:05:24.329Z,14.07
2019-06-04T13:07:53.059Z,12.63
2019-06-04T13:10:28.183Z,14.53
2019-06-04T13:12:52.043Z,13.50
2019-06-04T13:15:21.401Z,12.20
2019-06-04T13:17:49.867Z,12.50
2019-06-04T13:20:29.951Z,11.70
2019-06-04T13:22:48.598Z,12.83
2019-06-04T13:25:17.199Z,12.43
2019-06-04T13:27:45.815Z,13.50
2019-06-04T13:30:14.359Z,12.90
2019-06-04T13:32:42.877Z,11.87
2019-06-04T13:35:11.742Z,12.57
2019-06-04T13:37:41.193Z,12.47
2019-06-04T13:40:10.695Z,11.77
2019-06-04T13:42:39.324Z,12.33
2019-06-04T13:45:11.460Z,11.33
2019-06-04T13:47:37.995Z,11.33
2019-06-04T13:50:07.689Z,11.33
2019-06-04T13:52:37.497Z,11.23
2019-06-04T13:55:06.823Z,11.17
2019-06-04T13:57:36.496Z,11.80
2019-06-04T14:00:13.247Z,11.77
2019-06-04T14:02:41.943Z,12.47
2019-06-04T14:05:13.516Z,11.07
2019-06-04T14:07:42.374Z,12.20
2019-06-04T14:10:11.478Z,11.63
2019-06-04T14:12:40.335Z,11.13
2019-06-04T14:15:09.848Z,11.70
2019-06-04T14:17:38.354Z,11.37
2019-06-04T14:20:08.670Z,11.57
2019-06-04T14:22:38.241Z,12.07
2019-06-04T14:25:14.105Z,11.07
2019-06-04T14:27:43.365Z,11.07
2019-06-04T14:30:13.143Z,10.60
2019-06-04T14:32:42.143Z,11.47
2019-06-04T14:35:11.655Z,11.27
2019-06-04T14:37:40.243Z,11.17
2019-06-04T14:40:24.584Z,12.90
2019-06-04T14:42:39.340Z,10.87
2019-06-04T14:45:09.434Z,10.37
2019-06-04T14:47:38.253Z,11.50
2019-06-04T14:50:12.863Z,10.23
2019-06-04T14:52:39.694Z,9.47
2019-06-04T14:55:08.784Z,10.73
2019-06-04T14:57:37.275Z,10.23
2019-06-04T15:00:24.836Z,9.77
2019-06-04T15:02:53.196Z,9.63
2019-06-04T15:05:21.732Z,10.20
2019-06-04T15:08:01.737Z,10.00
2019-06-04T15:10:22.293Z,9.60
2019-06-04T15:12:50.916Z,8.87
2019-06-04T15:15:21.189Z,8.23
2019-06-04T15:17:49.911Z,8.00
2019-06-04T15:20:18.633Z,7.80
2019-06-04T15:22:47.206Z,7.83
2019-06-04T15:25:24.666Z,7.33
2019-06-04T15:27:53.237Z,7.40
2019-06-04T15:30:22.256Z,7.17
2019-06-04T15:32:51.719Z,6.77
2019-06-04T15:35:20.359Z,6.80
2019-06-04T15:37:48.821Z,6.50
2019-06-04T15:40:18.627Z,5.70
2019-06-04T15:42:47.109Z,6.00
2019-06-04T15:45:27.345Z,6.20
2019-06-04T15:47:47.614Z,5.80
2019-06-04T15:50:16.059Z,6.20
2019-06-04T15:52:51.919Z,5.70
2019-06-04T15:55:14.816Z,6.30
2019-06-04T15:57:43.303Z,5.93
2019-06-04T16:00:11.736Z,6.13
2019-06-04T16:02:40.284Z,6.00
2019-06-04T16:05:08.811Z,5.73
2019-06-04T16:07:37.375Z,5.17
2019-06-04T16:10:05.887Z,5.10
2019-06-04T16:12:34.412Z,5.50
2019-06-04T16:15:02.880Z,5.70
2019-06-04T16:17:33.201Z,5.37
2019-06-04T16:20:01.469Z,5.40
2019-06-04T16:22:30.562Z,5.57
2019-06-04T16:24:59.387Z,5.17
2019-06-04T16:27:28.227Z,5.70
2019-06-04T16:29:56.792Z,5.80
2019-06-04T16:32:26.321Z,5.13
2019-06-04T16:34:54.903Z,5.17
2019-06-04T16:37:23.376Z,5.80
2019-06-04T16:39:51.763Z,5.10
2019-06-04T16:42:27.913Z,5.07
2019-06-04T16:44:51.094Z,5.13
2019-06-04T16:47:20.940Z,5.03
2019-06-04T16:49:49.571Z,5.20
2019-06-04T16:52:18.687Z,4.70
2019-06-04T16:54:47.299Z,4.40
2019-06-04T16:57:15.765Z,5.30
2019-06-04T16:59:44.263Z,5.27
2019-06-04T17:02:12.673Z,4.93
2019-06-04T17:04:41.247Z,5.07
2019-06-04T17:07:09.622Z,5.40
2019-06-04T17:09:37.984Z,4.93
2019-06-04T17:12:06.635Z,4.97
2019-06-04T17:14:35.186Z,5.13
2019-06-04T17:17:03.796Z,5.20
2019-06-04T17:19:32.291Z,4.90
2019-06-04T17:22:00.719Z,5.03
2019-06-04T17:24:29.623Z,4.80
2019-06-04T17:26:58.299Z,5.33
2019-06-04T17:29:28.089Z,5.40
2019-06-04T17:31:57.243Z,4.80
2019-06-04T17:34:26.669Z,4.43
2019-06-04T17:36:55.098Z,5.00
2019-06-04T17:39:23.944Z,5.03
2019-06-04T17:41:53.615Z,4.43
2019-06-04T17:44:21.975Z,4.17
2019-06-04T17:46:51.379Z,3.97
2019-06-04T17:49:20.188Z,4.30
2019-06-04T17:51:48.679Z,3.87
2019-06-04T17:54:17.115Z,3.90
2019-06-04T17:56:45.665Z,3.50
2019-06-04T17:59:14.130Z,3.93
2019-06-04T18:01:42.594Z,3.50
2019-06-04T18:04:12.052Z,3.23
2019-06-04T18:06:41.573Z,3.30
2019-06-04T18:09:09.982Z,3.30
2019-06-04T18:11:39.656Z,3.50
2019-06-04T18:14:08.359Z,3.23
2019-06-04T18:16:37.736Z,3.43
2019-06-04T18:19:06.219Z,3.40
2019-06-04T18:21:35.935Z,3.53
2019-06-04T18:24:04.527Z,3.80
2019-06-04T18:26:34.292Z,4.00
2019-06-04T18:29:02.948Z,3.43
2019-06-04T18:31:31.909Z,3.33
2019-06-04T18:34:00.348Z,3.40
2019-06-04T18:36:30.793Z,3.30
2019-06-04T18:38:59.325Z,3.00
2019-06-04T18:41:28.160Z,3.50
2019-06-04T18:43:56.783Z,3.37
2019-06-04T18:46:25.243Z,3.67
2019-06-04T18:48:53.738Z,3.73
2019-06-04T18:51:24.274Z,3.60
2019-06-04T18:53:52.740Z,3.60
2019-06-04T18:56:21.158Z,3.43
2019-06-04T18:58:49.776Z,3.70
2019-06-04T19:01:18.476Z,3.67
2019-06-04T19:03:46.976Z,3.77
2019-06-04T19:06:16.401Z,3.80
2019-06-04T19:08:45.035Z,3.67
2019-06-04T19:11:13.518Z,3.73
2019-06-04T19:14:01.593Z,3.77
2019-06-04T19:16:12.411Z,3.80
2019-06-04T19:18:41.839Z,3.60
2019-06-04T19:21:10.634Z,4.10
2019-06-04T19:23:39.144Z,4.07
2019-06-04T19:26:07.751Z,3.70
2019-06-04T19:28:37.184Z,3.90
2019-06-04T19:31:06.708Z,4.10
2019-06-04T19:33:37.480Z,4.10
2019-06-04T19:36:06.054Z,4.37
2019-06-04T19:38:36.070Z,4.20
2019-06-04T19:41:04.687Z,4.70
2019-06-04T19:43:35.480Z,4.17
2019-06-04T19:46:04.011Z,4.90
2019-06-04T19:48:32.454Z,4.30
2019-06-04T19:51:02.711Z,4.23
2019-06-04T19:53:31.447Z,4.43
2019-06-04T19:55:59.980Z,4.37
2019-06-04T19:58:28.910Z,4.10
2019-06-04T20:00:57.425Z,4.53
2019-06-04T20:03:25.918Z,4.23
2019-06-04T20:05:56.308Z,4.43
2019-06-04T20:08:25.182Z,4.50
2019-06-04T20:10:54.412Z,4.53
2019-06-04T20:13:38.723Z,4.63
2019-06-04T20:15:53.283Z,4.57
2019-06-04T20:18:21.735Z,4.93
2019-06-04T20:20:50.344Z,4.90
2019-06-04T20:23:18.795Z,4.70
2019-06-04T20:25:48.165Z,4.13
2019-06-04T20:28:16.707Z,4.47
2019-06-04T20:30:45.193Z,4.17
2019-06-04T20:33:13.563Z,4.60
2019-06-04T20:35:43.737Z,4.40
2019-06-04T20:38:12.428Z,4.30
2019-06-04T20:40:41.424Z,4.60
2019-06-04T20:43:14.831Z,4.40
2019-06-04T20:45:42.087Z,4.27
2019-06-04T20:48:10.862Z,4.47
2019-06-04T20:50:40.617Z,3.93
2019-06-04T20:53:09.234Z,4.10
2019-06-04T20:55:37.621Z,3.80
2019-06-04T20:58:06.086Z,3.50
2019-06-04T21:00:34.546Z,3.60
2019-06-04T21:03:02.918Z,3.57
2019-06-04T21:05:31.543Z,3.43
2019-06-04T21:07:59.971Z,3.60
2019-06-04T21:10:28.408Z,3.50
2019-06-04T21:12:56.930Z,3.40
2019-06-04T21:15:26.515Z,3.53
2019-06-04T21:17:55.174Z,3.70
2019-06-04T21:20:23.811Z,3.40
2019-06-04T21:22:52.805Z,3.47
2019-06-04T21:25:21.446Z,3.43
2019-06-04T21:27:50.012Z,3.40
2019-06-04T21:30:18.444Z,3.50
2019-06-04T21:32:48.015Z,3.27
2019-06-04T21:35:16.546Z,3.53
2019-06-04T21:37:46.068Z,3.10
2019-06-04T21:40:14.694Z,3.23
2019-06-04T21:42:43.161Z,3.40
2019-06-04T21:45:11.607Z,3.17
2019-06-04T21:47:40.051Z,3.37
2019-06-04T21:50:08.793Z,2.97
2019-06-04T21:52:37.259Z,3.30
2019-06-04T21:55:05.724Z,3.30
2019-06-04T21:57:34.175Z,4.07
2019-06-04T22:00:03.212Z,3.97
2019-06-04T22:02:31.959Z,3.90
2019-06-04T22:05:00.574Z,4.03
2019-06-04T22:07:28.975Z,4.40
2019-06-04T22:09:57.499Z,5.30
2019-06-04T22:12:25.959Z,4.53
2019-06-04T22:14:54.586Z,5.07
2019-06-04T22:17:23.775Z,4.80
2019-06-04T22:19:52.720Z,4.70
2019-06-04T22:22:21.364Z,4.67
2019-06-04T22:24:49.987Z,4.60
2019-06-04T22:27:18.452Z,5.33
2019-06-04T22:29:47.106Z,4.80
2019-06-04T22:32:15.581Z,4.57
2019-06-04T22:34:44.030Z,5.20
2019-06-04T22:37:12.567Z,5.13
2019-06-04T22:39:41.330Z,4.93
2019-06-04T22:42:09.816Z,5.40
2019-06-04T22:44:38.275Z,5.97
2019-06-04T22:47:06.715Z,5.23
2019-06-04T22:49:35.170Z,5.03
2019-06-04T22:52:03.618Z,5.73
2019-06-04T22:54:31.978Z,4.60
2019-06-04T22:57:01.271Z,5.43
2019-06-04T22:59:29.775Z,5.70
2019-06-04T23:01:59.420Z,5.60
2019-06-04T23:04:28.456Z,5.30
2019-06-04T23:06:58.145Z,5.53
2019-06-04T23:09:26.682Z,5.90
2019-06-04T23:11:56.714Z,5.10
2019-06-04T23:14:25.334Z,5.80
2019-06-04T23:16:55.875Z,5.57
2019-06-04T23:19:23.930Z,5.80
2019-06-04T23:21:53.559Z,5.60
2019-06-04T23:24:22.119Z,6.17
2019-06-04T23:26:50.511Z,5.27
2019-06-04T23:29:18.887Z,5.70
2019-06-04T23:31:47.414Z,6.05
2019-06-04T23:34:15.969Z,5.77
2019-06-04T23:36:44.438Z,5.43
2019-06-04T23:39:12.872Z,5.67
2019-06-04T23:41:41.335Z,5.67
2019-06-04T23:44:09.982Z,5.03
2019-06-04T23:46:54.890Z,5.40
2019-06-04T23:49:14.201Z,5.70
2019-06-04T23:51:39.875Z,5.70
2019-06-04T23:54:08.388Z,5.70
2019-06-04T23:56:36.943Z,6.27
2019-06-04T23:59:06.344Z,5.83
